createdAt,value
2022-11-19T00:02:03.596Z,3.47
2022-11-19T00:04:31.308Z,3.93
2022-11-19T00:06:59.838Z,4.28
2022-11-19T00:09:27.614Z,3.00
2022-11-19T00:12:13.726Z,3.28
2022-11-19T00:14:41.945Z,2.92
2022-11-19T00:17:09.614Z,2.93
2022-11-19T00:19:37.822Z,5.40
2022-11-19T00:22:05.565Z,4.30
2022-11-19T00:24:33.683Z,4.05
2022-11-19T00:27:01.287Z,4.25
2022-11-19T00:29:29.551Z,4.70
2022-11-19T00:31:57.298Z,4.43
2022-11-19T00:34:25.410Z,5.10
2022-11-19T00:36:53.180Z,4.22
2022-11-19T00:39:22.362Z,7.03
2022-11-19T00:41:50.138Z,5.17
2022-11-19T00:44:18.459Z,5.05
2022-11-19T00:46:46.279Z,4.20
2022-11-19T00:49:14.424Z,4.55
2022-11-19T00:51:42.178Z,6.00
2022-11-19T00:54:10.877Z,7.10
2022-11-19T00:56:38.599Z,4.80
2022-11-19T00:59:07.134Z,3.92
2022-11-19T01:01:34.811Z,5.43
2022-11-19T01:04:03.064Z,4.80
2022-11-19T01:06:32.061Z,6.00
2022-11-19T01:09:00.344Z,5.35
2022-11-19T01:11:31.471Z,5.20
2022-11-19T01:14:00.373Z,5.63
2022-11-19T01:16:29.632Z,2.97
2022-11-19T01:18:58.729Z,7.23
2022-11-19T01:21:29.283Z,4.75
2022-11-19T01:23:58.804Z,5.97
2022-11-19T01:26:27.909Z,5.07
2022-11-19T01:28:57.773Z,7.20
2022-11-19T01:31:28.123Z,4.67
2022-11-19T01:33:57.163Z,4.68
2022-11-19T01:36:29.462Z,3.10
2022-11-19T01:38:58.040Z,4.15
2022-11-19T01:41:32.052Z,3.47
2022-11-19T01:44:03.647Z,3.80
2022-11-19T01:46:38.522Z,2.05
2022-11-19T01:49:19.304Z,2.40
2022-11-19T01:51:55.624Z,3.33
2022-11-19T01:54:26.870Z,4.45
2022-11-19T01:56:57.605Z,6.47
2022-11-19T01:59:27.465Z,5.65
2022-11-19T02:01:55.601Z,6.80
2022-11-19T02:04:24.491Z,7.45
2022-11-19T02:06:53.162Z,6.88
2022-11-19T02:09:21.756Z,5.50
2022-11-19T02:12:18.995Z,4.97
2022-11-19T02:14:55.228Z,7.75
2022-11-19T02:17:38.579Z,5.22
2022-11-19T02:20:32.213Z,3.45
2022-11-19T02:23:27.031Z,8.03
2022-11-19T02:26:28.949Z,7.38
2022-11-19T02:29:25.497Z,10.45
2022-11-19T02:32:17.538Z,6.80
2022-11-19T02:34:55.489Z,5.40
2022-11-19T02:37:45.177Z,2.90
2022-11-19T02:40:23.242Z,1.90
2022-11-19T02:43:16.368Z,1.55
2022-11-19T02:45:52.335Z,2.08
2022-11-19T02:48:29.557Z,1.13
2022-11-19T02:51:01.055Z,1.07
2022-11-19T02:53:29.679Z,2.83
2022-11-19T02:56:12.451Z,5.68
2022-11-19T02:59:08.481Z,2.05
2022-11-19T03:01:59.165Z,1.38
2022-11-19T03:04:31.671Z,2.57
2022-11-19T03:07:13.213Z,1.60
2022-11-19T03:09:45.437Z,1.65
2022-11-19T03:12:25.184Z,3.55
2022-11-19T03:15:33.100Z,6.00
2022-11-19T03:18:16.713Z,1.93
2022-11-19T03:21:06.484Z,6.55
2022-11-19T03:23:40.955Z,4.53
2022-11-19T03:26:21.201Z,3.42
2022-11-19T03:28:52.030Z,3.22
2022-11-19T03:31:24.283Z,1.93
2022-11-19T03:33:56.109Z,3.08
2022-11-19T03:36:30.452Z,3.53
2022-11-19T03:39:05.569Z,1.80
2022-11-19T03:41:36.358Z,5.00
2022-11-19T03:44:12.322Z,4.27
2022-11-19T03:46:42.676Z,2.17
2022-11-19T03:49:12.629Z,1.98
2022-11-19T03:51:56.662Z,1.88
2022-11-19T03:54:24.667Z,2.35
2022-11-19T03:56:52.968Z,3.57
2022-11-19T03:59:22.496Z,22.10
2022-11-19T04:01:57.002Z,10.18
2022-11-19T04:04:40.246Z,7.40
2022-11-19T04:07:08.516Z,6.00
2022-11-19T04:09:36.465Z,24.47
2022-11-19T04:12:05.324Z,26.23
2022-11-19T04:14:33.186Z,10.93
2022-11-19T04:17:01.337Z,8.55
2022-11-19T04:19:28.985Z,27.77
2022-11-19T04:21:57.364Z,10.20
2022-11-19T04:24:25.152Z,2.45
2022-11-19T04:26:53.334Z,3.80
2022-11-19T04:29:21.430Z,2.78
2022-11-19T04:31:49.765Z,16.05
2022-11-19T04:34:18.400Z,25.47
2022-11-19T04:36:47.322Z,12.05
2022-11-19T04:39:15.329Z,3.28
2022-11-19T04:41:43.467Z,1.20
2022-11-19T04:44:11.199Z,2.00
2022-11-19T04:46:39.406Z,1.50
2022-11-19T04:49:07.002Z,2.85
2022-11-19T04:51:35.232Z,1.42
2022-11-19T04:54:03.363Z,13.63
2022-11-19T04:56:31.643Z,23.75
2022-11-19T04:58:59.321Z,42.90
2022-11-19T05:01:28.635Z,15.63
2022-11-19T05:03:56.264Z,16.10
2022-11-19T05:06:25.768Z,14.73
2022-11-19T05:08:53.661Z,14.57
2022-11-19T05:11:21.807Z,22.63
2022-11-19T05:13:49.588Z,16.80
2022-11-19T05:16:17.932Z,14.50
2022-11-19T05:18:45.728Z,16.05
2022-11-19T05:21:13.888Z,13.27
2022-11-19T05:23:41.546Z,12.47
2022-11-19T05:26:09.809Z,30.02
2022-11-19T05:28:39.968Z,25.50
2022-11-19T05:31:08.929Z,9.07
2022-11-19T05:33:36.601Z,12.90
2022-11-19T05:36:05.120Z,17.27
2022-11-19T05:38:32.758Z,10.00
2022-11-19T05:41:00.846Z,9.05
2022-11-19T05:43:28.749Z,36.53
2022-11-19T05:46:00.461Z,10.85
2022-11-19T05:48:29.510Z,15.33
2022-11-19T05:50:57.731Z,7.78
2022-11-19T05:53:26.635Z,20.13
2022-11-19T05:55:55.152Z,12.88
2022-11-19T05:58:22.972Z,8.18
2022-11-19T06:00:56.347Z,3.43
2022-11-19T06:03:24.087Z,3.70
2022-11-19T06:05:52.485Z,6.60
2022-11-19T06:08:20.517Z,6.45
2022-11-19T06:10:48.712Z,4.50
2022-11-19T06:13:16.934Z,7.47
2022-11-19T06:15:45.017Z,6.28
2022-11-19T06:18:12.910Z,70.22
2022-11-19T06:20:40.904Z,16.50
2022-11-19T06:23:09.080Z,9.50
2022-11-19T06:25:37.333Z,6.43
2022-11-19T06:28:05.418Z,7.32
2022-11-19T06:30:33.544Z,7.72
2022-11-19T06:33:01.275Z,12.90
2022-11-19T06:35:29.421Z,8.32
2022-11-19T06:37:58.344Z,8.20
2022-11-19T06:40:26.930Z,17.20
2022-11-19T06:42:54.675Z,9.77
2022-11-19T06:45:22.802Z,8.70
2022-11-19T06:47:50.620Z,10.85
2022-11-19T06:50:18.742Z,7.97
2022-11-19T06:52:46.670Z,10.07
2022-11-19T06:55:16.362Z,12.27
2022-11-19T06:57:46.835Z,11.57
2022-11-19T07:00:16.695Z,11.05
2022-11-19T07:02:44.436Z,12.70
2022-11-19T07:05:12.774Z,14.48
2022-11-19T07:07:40.696Z,15.07
2022-11-19T07:10:09.657Z,20.13
2022-11-19T07:12:37.582Z,32.78
2022-11-19T07:15:09.730Z,24.83
2022-11-19T07:17:40.368Z,18.83
2022-11-19T07:20:10.548Z,11.70
2022-11-19T07:22:44.741Z,18.38
2022-11-19T07:25:13.643Z,17.17
2022-11-19T07:27:44.124Z,21.43
2022-11-19T07:30:18.670Z,17.90
2022-11-19T07:32:50.496Z,23.02
2022-11-19T07:35:18.831Z,20.55
2022-11-19T07:37:50.511Z,12.57
2022-11-19T07:40:19.270Z,14.77
2022-11-19T07:42:51.591Z,18.02
2022-11-19T07:45:22.432Z,14.23
2022-11-19T07:47:50.826Z,19.45
2022-11-19T07:50:19.793Z,21.85
2022-11-19T07:52:48.579Z,16.73
2022-11-19T07:55:19.103Z,11.82
2022-11-19T07:57:48.994Z,14.38
2022-11-19T08:00:19.132Z,13.25
2022-11-19T08:02:51.444Z,21.13
2022-11-19T08:05:24.875Z,19.97
2022-11-19T08:07:59.059Z,13.35
2022-11-19T08:10:40.400Z,4.97
2022-11-19T08:13:19.946Z,4.28
2022-11-19T08:15:53.217Z,4.47
2022-11-19T08:18:27.163Z,4.13
2022-11-19T08:21:08.529Z,6.25
2022-11-19T08:23:42.124Z,4.53
2022-11-19T08:26:10.870Z,3.25
2022-11-19T08:28:38.641Z,3.03
2022-11-19T08:31:08.302Z,17.30
2022-11-19T08:33:36.977Z,8.05
2022-11-19T08:36:05.560Z,24.85
2022-11-19T08:38:38.250Z,22.23
2022-11-19T08:41:25.532Z,48.53
2022-11-19T08:43:54.654Z,12.20
2022-11-19T08:46:23.645Z,4.90
2022-11-19T08:48:51.388Z,2.88
2022-11-19T08:51:19.600Z,3.38
2022-11-19T08:53:48.514Z,3.25
2022-11-19T08:56:18.232Z,10.13
2022-11-19T08:58:46.807Z,3.13
2022-11-19T09:01:18.790Z,6.13
2022-11-19T09:03:47.261Z,3.85
2022-11-19T09:06:15.466Z,4.00
2022-11-19T09:08:44.160Z,5.93
2022-11-19T09:11:15.859Z,3.95
2022-11-19T09:13:44.225Z,6.00
2022-11-19T09:16:13.405Z,5.15
2022-11-19T09:18:42.967Z,3.40
2022-11-19T09:21:12.754Z,4.40
2022-11-19T09:23:45.985Z,6.57
2022-11-19T09:26:23.502Z,5.88
2022-11-19T09:28:57.024Z,3.35
2022-11-19T09:31:38.977Z,2.75
2022-11-19T09:34:09.874Z,2.37
2022-11-19T09:36:39.810Z,3.30
2022-11-19T09:39:09.365Z,2.22
2022-11-19T09:42:05.906Z,2.30
2022-11-19T09:44:41.694Z,2.22
2022-11-19T09:47:27.441Z,3.40
2022-11-19T09:50:16.820Z,4.35
2022-11-19T09:52:49.949Z,4.22
2022-11-19T09:55:22.777Z,4.97
2022-11-19T09:57:55.650Z,4.50
2022-11-19T10:00:28.053Z,3.97
2022-11-19T10:02:58.615Z,4.68
2022-11-19T10:06:02.188Z,8.00
2022-11-19T10:08:48.373Z,9.95
2022-11-19T10:11:18.699Z,4.53
2022-11-19T10:13:57.061Z,4.50
2022-11-19T10:16:52.805Z,4.10
2022-11-19T10:19:36.776Z,5.28
2022-11-19T10:22:07.221Z,4.38
2022-11-19T10:24:42.047Z,5.60
2022-11-19T10:27:20.817Z,7.33
2022-11-19T10:29:52.878Z,5.88
2022-11-19T10:32:27.976Z,30.08
2022-11-19T10:35:00.640Z,9.50
2022-11-19T10:37:41.097Z,9.63
2022-11-19T10:40:16.296Z,6.97
2022-11-19T10:42:58.736Z,7.28
2022-11-19T10:45:35.543Z,3.20
2022-11-19T10:48:24.840Z,5.07
2022-11-19T10:50:58.090Z,5.72
2022-11-19T10:53:39.111Z,52.43
2022-11-19T10:56:18.009Z,19.23
2022-11-19T10:58:50.639Z,9.48
2022-11-19T11:01:32.910Z,5.78
2022-11-19T11:04:23.754Z,2.85
2022-11-19T11:07:00.566Z,3.37
2022-11-19T11:09:37.670Z,4.45
2022-11-19T11:12:45.781Z,5.90
2022-11-19T11:15:21.909Z,5.35
2022-11-19T11:18:02.302Z,5.38
2022-11-19T11:20:31.441Z,6.97
2022-11-19T11:23:26.883Z,6.38
2022-11-19T11:26:06.056Z,6.85
2022-11-19T11:28:35.144Z,6.28
2022-11-19T11:31:06.264Z,6.50
2022-11-19T11:33:37.935Z,6.47
2022-11-19T11:36:10.762Z,6.18
2022-11-19T11:38:44.434Z,7.20
2022-11-19T11:44:16.993Z,6.80
2022-11-19T11:46:44.760Z,8.27
2022-11-19T11:49:24.187Z,9.43
2022-11-19T11:52:03.736Z,6.88
2022-11-19T11:54:31.909Z,9.77
2022-11-19T11:57:21.293Z,8.00
2022-11-19T11:59:49.862Z,5.70
2022-11-19T12:02:33.198Z,5.20
2022-11-19T12:05:29.559Z,10.13
2022-11-19T12:08:07.655Z,8.73
2022-11-19T12:10:49.990Z,6.18
2022-11-19T12:13:31.478Z,13.20
2022-11-19T12:16:08.161Z,8.93
2022-11-19T12:19:06.598Z,9.27
2022-11-19T12:22:01.735Z,11.20
2022-11-19T12:25:04.971Z,11.35
2022-11-19T12:27:58.777Z,8.03
2022-11-19T12:30:37.272Z,11.27
2022-11-19T12:33:21.165Z,8.52
2022-11-19T12:35:50.066Z,7.78
2022-11-19T12:38:44.724Z,5.53
2022-11-19T12:41:19.274Z,17.00
2022-11-19T12:43:59.286Z,33.80
2022-11-19T12:46:44.097Z,18.95
2022-11-19T12:49:34.344Z,16.75
2022-11-19T12:52:16.017Z,17.23
2022-11-19T12:55:06.128Z,25.43
2022-11-19T12:57:52.267Z,11.15
2022-11-19T13:00:25.134Z,13.07
2022-11-19T13:03:01.567Z,9.13
2022-11-19T13:05:35.774Z,31.50
2022-11-19T13:08:20.863Z,17.07
2022-11-19T13:10:55.855Z,12.10
2022-11-19T13:13:28.458Z,10.63
2022-11-19T13:16:04.513Z,15.05
2022-11-19T13:18:35.833Z,8.68
2022-11-19T13:21:09.442Z,24.03
2022-11-19T13:23:46.804Z,9.52
2022-11-19T13:26:24.221Z,9.40
2022-11-19T13:28:56.371Z,6.45
2022-11-19T13:31:34.458Z,9.07
2022-11-19T13:34:26.231Z,15.80
2022-11-19T13:37:46.201Z,22.63
2022-11-19T13:40:22.695Z,16.58
2022-11-19T13:43:31.020Z,11.45
2022-11-19T13:46:33.669Z,13.90
2022-11-19T13:49:43.716Z,17.87
2022-11-19T13:52:27.686Z,34.70
2022-11-19T13:55:34.595Z,10.88
2022-11-19T13:58:22.329Z,9.13
2022-11-19T14:01:23.008Z,49.83
2022-11-19T14:04:16.732Z,37.40
2022-11-19T14:07:14.464Z,28.10
2022-11-19T14:09:42.224Z,26.63
2022-11-19T14:12:47.346Z,30.92
2022-11-19T14:15:53.786Z,26.65
2022-11-19T14:18:54.555Z,26.20
2022-11-19T14:21:43.738Z,22.17
2022-11-19T14:24:45.400Z,16.15
2022-11-19T14:27:29.678Z,16.90
2022-11-19T14:30:19.871Z,25.08
2022-11-19T14:32:52.684Z,16.87
2022-11-19T14:35:26.526Z,18.60
2022-11-19T14:38:34.016Z,20.48
2022-11-19T14:41:16.064Z,23.33
2022-11-19T14:44:10.210Z,28.80
2022-11-19T14:46:41.386Z,52.17
2022-11-19T14:49:27.845Z,30.35
2022-11-19T14:51:57.993Z,26.15
2022-11-19T14:54:37.497Z,24.17
2022-11-19T14:57:26.436Z,26.88
2022-11-19T15:00:04.709Z,26.20
2022-11-19T15:02:46.602Z,22.23
2022-11-19T15:05:29.843Z,25.10
2022-11-19T15:08:21.539Z,18.98
2022-11-19T15:11:10.105Z,20.20
2022-11-19T15:13:49.311Z,14.47
2022-11-19T15:16:28.979Z,15.50
2022-11-19T15:19:33.596Z,23.65
2022-11-19T15:22:08.811Z,14.02
2022-11-19T15:25:04.066Z,17.90
2022-11-19T15:27:38.368Z,28.43
2022-11-19T15:30:21.189Z,28.13
2022-11-19T15:33:03.713Z,31.98
2022-11-19T15:35:56.611Z,20.02
2022-11-19T15:38:26.629Z,47.17
2022-11-19T15:40:59.865Z,37.07
2022-11-19T15:43:33.853Z,28.73
2022-11-19T15:46:11.814Z,43.00
2022-11-19T15:49:10.667Z,39.28
2022-11-19T15:52:14.463Z,115.53
2022-11-19T15:54:45.652Z,59.70
2022-11-19T15:57:27.742Z,39.10
2022-11-19T16:00:01.770Z,69.95
2022-11-19T16:02:44.171Z,33.60
2022-11-19T16:05:30.950Z,30.55
2022-11-19T16:08:04.998Z,29.40
2022-11-19T16:10:41.092Z,45.53
2022-11-19T16:13:44.921Z,45.08
2022-11-19T16:16:41.707Z,41.83
2022-11-19T16:19:13.084Z,58.28
2022-11-19T16:21:42.041Z,35.07
2022-11-19T16:24:33.641Z,30.58
2022-11-19T16:27:03.342Z,29.27
2022-11-19T16:29:35.358Z,50.53
2022-11-19T16:32:04.829Z,25.35
2022-11-19T16:34:34.364Z,24.40
2022-11-19T16:37:02.415Z,17.40
2022-11-19T16:39:33.250Z,14.23
2022-11-19T16:42:18.133Z,26.90
2022-11-19T16:44:53.625Z,19.40
2022-11-19T16:47:30.321Z,26.27
2022-11-19T16:50:42.347Z,21.05
2022-11-19T16:53:43.432Z,18.60
2022-11-19T16:56:17.216Z,16.20
2022-11-19T16:58:46.433Z,14.73
2022-11-19T17:01:19.124Z,21.40
2022-11-19T17:03:47.523Z,14.77
2022-11-19T17:06:26.277Z,12.60
2022-11-19T17:08:57.557Z,11.82
2022-11-19T17:12:00.276Z,13.73
2022-11-19T17:14:38.613Z,13.57
2022-11-19T17:17:35.545Z,23.92
2022-11-19T17:20:32.505Z,15.85
2022-11-19T17:23:17.150Z,16.70
2022-11-19T17:25:51.934Z,16.00
2022-11-19T17:28:26.565Z,17.63
2022-11-19T17:30:55.692Z,15.70
2022-11-19T17:33:24.785Z,18.85
2022-11-19T17:35:53.108Z,21.58
2022-11-19T17:38:27.831Z,26.80
2022-11-19T17:41:00.979Z,47.73
2022-11-19T17:43:53.482Z,46.50
2022-11-19T17:46:24.716Z,34.03
2022-11-19T17:48:54.134Z,28.50
2022-11-19T17:51:24.194Z,18.65
2022-11-19T17:53:53.555Z,34.23
2022-11-19T17:56:30.753Z,29.60
2022-11-19T17:58:59.918Z,16.25
2022-11-19T18:01:28.025Z,17.77
2022-11-19T18:03:56.404Z,16.73
2022-11-19T18:06:24.136Z,17.13
2022-11-19T18:08:52.400Z,15.70
2022-11-19T18:11:25.673Z,21.05
2022-11-19T18:13:55.774Z,41.17
2022-11-19T18:16:25.926Z,32.03
2022-11-19T18:18:54.603Z,21.43
2022-11-19T18:21:24.341Z,15.98
2022-11-19T18:23:53.178Z,16.95
2022-11-19T18:26:25.568Z,18.67
2022-11-19T18:28:53.855Z,17.15
2022-11-19T18:31:26.233Z,19.73
2022-11-19T18:37:37.760Z,20.13
2022-11-19T18:40:06.685Z,18.45
2022-11-19T18:42:34.996Z,20.42
2022-11-19T18:45:03.128Z,19.87
2022-11-19T18:47:30.820Z,20.02
2022-11-19T18:49:59.052Z,21.38
2022-11-19T18:52:26.751Z,18.83
2022-11-19T18:54:55.121Z,21.60
2022-11-19T18:57:22.815Z,20.27
2022-11-19T18:59:51.353Z,40.28
2022-11-19T19:02:18.995Z,30.20
2022-11-19T19:04:51.011Z,21.08
2022-11-19T19:07:19.651Z,18.27
2022-11-19T19:09:47.663Z,20.13
2022-11-19T19:12:19.205Z,23.08
2022-11-19T19:14:49.292Z,28.17
2022-11-19T19:17:17.997Z,41.40
2022-11-19T19:19:46.284Z,49.35
2022-11-19T19:22:14.129Z,33.47
2022-11-19T19:24:42.177Z,43.35
2022-11-19T19:27:10.735Z,45.17
2022-11-19T19:29:39.955Z,37.00
2022-11-19T19:32:08.417Z,36.00
2022-11-19T19:34:36.832Z,58.30
2022-11-19T19:37:05.625Z,33.38
2022-11-19T19:39:33.658Z,38.25
2022-11-19T19:42:01.494Z,30.05
2022-11-19T19:44:29.478Z,26.30
2022-11-19T19:46:58.948Z,17.40
2022-11-19T19:49:27.254Z,15.50
2022-11-19T19:51:55.681Z,16.98
2022-11-19T19:54:23.811Z,15.45
2022-11-19T19:56:53.524Z,11.55
2022-11-19T19:59:23.123Z,14.20
2022-11-19T20:01:51.891Z,13.02
2022-11-19T20:04:20.152Z,14.88
2022-11-19T20:06:48.546Z,17.67
2022-11-19T20:09:16.889Z,14.95
2022-11-19T20:11:44.815Z,16.57
2022-11-19T20:14:13.500Z,15.05
2022-11-19T20:16:41.999Z,16.02
2022-11-19T20:19:14.569Z,16.25
2022-11-19T20:21:42.592Z,19.98
2022-11-19T20:24:13.527Z,19.40
2022-11-19T20:26:42.531Z,16.42
2022-11-19T20:29:12.938Z,17.25
2022-11-19T20:31:41.548Z,17.23
2022-11-19T20:34:10.340Z,15.20
2022-11-19T20:36:38.179Z,15.20
2022-11-19T20:39:07.005Z,16.92
2022-11-19T20:41:53.694Z,14.85
2022-11-19T20:44:22.520Z,14.70
2022-11-19T20:46:56.514Z,16.25
2022-11-19T20:49:27.153Z,15.23
2022-11-19T20:51:56.209Z,15.15
2022-11-19T20:54:25.036Z,14.90
2022-11-19T20:56:55.069Z,18.83
2022-11-19T20:59:26.468Z,16.20
2022-11-19T21:01:56.335Z,16.30
2022-11-19T21:04:26.613Z,20.23
2022-11-19T21:06:54.420Z,17.30
2022-11-19T21:09:22.888Z,16.95
2022-11-19T21:11:50.899Z,19.50
2022-11-19T21:14:19.019Z,19.63
2022-11-19T21:16:46.737Z,19.00
2022-11-19T21:19:15.913Z,16.85
2022-11-19T21:21:45.175Z,17.10
2022-11-19T21:24:13.340Z,21.58
2022-11-19T21:26:41.194Z,26.60
2022-11-19T21:29:09.226Z,26.23
2022-11-19T21:31:45.872Z,22.67
2022-11-19T21:34:16.017Z,27.52
2022-11-19T21:36:45.338Z,26.85
2022-11-19T21:39:15.101Z,25.67
2022-11-19T21:41:43.410Z,20.40
2022-11-19T21:44:14.291Z,20.67
2022-11-19T21:46:46.081Z,20.08
2022-11-19T21:49:14.120Z,21.13
2022-11-19T21:51:41.881Z,27.30
2022-11-19T21:54:09.899Z,31.58
2022-11-19T21:56:39.050Z,19.30
2022-11-19T21:59:07.772Z,20.60
2022-11-19T22:01:35.721Z,18.95
2022-11-19T22:04:04.128Z,17.50
2022-11-19T22:06:32.829Z,17.52
2022-11-19T22:09:01.393Z,16.85
2022-11-19T22:11:29.669Z,17.15
2022-11-19T22:14:03.528Z,16.65
2022-11-19T22:16:34.276Z,19.53
2022-11-19T22:19:02.232Z,17.45
2022-11-19T22:21:30.434Z,17.45
2022-11-19T22:23:58.494Z,18.52
2022-11-19T22:26:26.594Z,18.45
2022-11-19T22:28:54.571Z,17.63
2022-11-19T22:31:23.535Z,17.88
2022-11-19T22:33:52.438Z,16.23
2022-11-19T22:36:22.318Z,15.93
2022-11-19T22:38:51.790Z,14.02
2022-11-19T22:41:22.255Z,17.00
2022-11-19T22:43:51.191Z,14.45
2022-11-19T22:46:20.279Z,14.68
2022-11-19T22:48:48.697Z,16.77
2022-11-19T22:51:20.924Z,17.33
2022-11-19T22:53:50.016Z,15.50
2022-11-19T22:56:21.026Z,17.38
2022-11-19T22:58:50.120Z,14.60
2022-11-19T23:01:26.349Z,17.30
2022-11-19T23:03:56.048Z,13.25
2022-11-19T23:06:24.612Z,15.00
2022-11-19T23:08:53.108Z,13.88
2022-11-19T23:11:41.844Z,17.30
2022-11-19T23:14:12.516Z,11.73
2022-11-19T23:16:41.940Z,11.60
2022-11-19T23:19:10.998Z,14.47
2022-11-19T23:21:40.575Z,14.13
2022-11-19T23:24:09.820Z,15.90
2022-11-19T23:26:38.400Z,14.40
2022-11-19T23:29:06.847Z,13.60
2022-11-19T23:31:37.583Z,17.70
2022-11-19T23:34:05.453Z,14.18
2022-11-19T23:36:38.764Z,17.85
2022-11-19T23:39:10.306Z,17.35
2022-11-19T23:41:38.552Z,14.45
2022-11-19T23:44:06.208Z,14.50
2022-11-19T23:46:35.649Z,13.23
2022-11-19T23:49:04.508Z,13.52
2022-11-19T23:51:37.791Z,14.07
2022-11-19T23:54:06.208Z,18.10
2022-11-19T23:56:36.388Z,20.13
2022-11-19T23:59:05.351Z,15.65
